sensor_id;sensor_type;location;lat;lon;timestamp;P1;durP1;ratioP1;P2;durP2;ratioP2
18659;SDS011;9459;50.254;19.014;2022-10-16T00:01:03;14.82;;;10.40;;
18659;SDS011;9459;50.254;19.014;2022-10-16T00:03:35;16.40;;;11.98;;
18659;SDS011;9459;50.254;19.014;2022-10-16T00:06:03;17.45;;;10.98;;
18659;SDS011;9459;50.254;19.014;2022-10-16T00:08:33;15.43;;;11.32;;
18659;SDS011;9459;50.254;19.014;2022-10-16T00:11:02;15.23;;;11.02;;
18659;SDS011;9459;50.254;19.014;2022-10-16T00:13:32;18.17;;;11.65;;
18659;SDS011;9459;50.254;19.014;2022-10-16T00:16:02;15.63;;;11.65;;
18659;SDS011;9459;50.254;19.014;2022-10-16T00:18:31;14.80;;;11.23;;
18659;SDS011;9459;50.254;19.014;2022-10-16T00:21:01;14.48;;;11.30;;
18659;SDS011;9459;50.254;19.014;2022-10-16T00:23:30;16.52;;;11.15;;
18659;SDS011;9459;50.254;19.014;2022-10-16T00:25:59;13.80;;;10.93;;
18659;SDS011;9459;50.254;19.014;2022-10-16T00:28:29;17.50;;;11.50;;
18659;SDS011;9459;50.254;19.014;2022-10-16T00:30:57;14.88;;;10.35;;
18659;SDS011;9459;50.254;19.014;2022-10-16T00:33:27;20.00;;;10.23;;
18659;SDS011;9459;50.254;19.014;2022-10-16T00:35:57;14.98;;;11.00;;
18659;SDS011;9459;50.254;19.014;2022-10-16T00:38:25;13.55;;;10.13;;
18659;SDS011;9459;50.254;19.014;2022-10-16T00:40:54;16.17;;;10.98;;
18659;SDS011;9459;50.254;19.014;2022-10-16T00:43:36;15.68;;;10.77;;
18659;SDS011;9459;50.254;19.014;2022-10-16T00:46:09;16.95;;;10.77;;
18659;SDS011;9459;50.254;19.014;2022-10-16T00:48:43;12.80;;;10.23;;
18659;SDS011;9459;50.254;19.014;2022-10-16T00:51:14;16.30;;;10.75;;
18659;SDS011;9459;50.254;19.014;2022-10-16T00:53:43;14.50;;;10.50;;
18659;SDS011;9459;50.254;19.014;2022-10-16T00:56:12;15.32;;;10.98;;
18659;SDS011;9459;50.254;19.014;2022-10-16T00:58:40;14.15;;;10.45;;
18659;SDS011;9459;50.254;19.014;2022-10-16T01:01:08;14.13;;;10.88;;
18659;SDS011;9459;50.254;19.014;2022-10-16T01:03:37;15.48;;;10.88;;
18659;SDS011;9459;50.254;19.014;2022-10-16T01:06:09;13.70;;;9.95;;
18659;SDS011;9459;50.254;19.014;2022-10-16T01:08:45;12.77;;;10.35;;
18659;SDS011;9459;50.254;19.014;2022-10-16T01:11:19;14.13;;;10.05;;
18659;SDS011;9459;50.254;19.014;2022-10-16T01:13:53;12.80;;;10.27;;
18659;SDS011;9459;50.254;19.014;2022-10-16T01:16:25;16.65;;;10.25;;
18659;SDS011;9459;50.254;19.014;2022-10-16T01:18:58;12.50;;;10.13;;
18659;SDS011;9459;50.254;19.014;2022-10-16T01:21:33;14.15;;;10.20;;
18659;SDS011;9459;50.254;19.014;2022-10-16T01:24:06;13.68;;;10.02;;
18659;SDS011;9459;50.254;19.014;2022-10-16T01:26:43;14.10;;;10.68;;
18659;SDS011;9459;50.254;19.014;2022-10-16T01:29:24;11.80;;;9.68;;
18659;SDS011;9459;50.254;19.014;2022-10-16T01:31:56;13.63;;;11.23;;
18659;SDS011;9459;50.254;19.014;2022-10-16T01:34:27;16.13;;;13.07;;
18659;SDS011;9459;50.254;19.014;2022-10-16T01:37:00;17.60;;;13.40;;
18659;SDS011;9459;50.254;19.014;2022-10-16T01:39:31;17.13;;;12.02;;
18659;SDS011;9459;50.254;19.014;2022-10-16T01:42:01;17.00;;;11.73;;
18659;SDS011;9459;50.254;19.014;2022-10-16T01:44:34;15.27;;;12.85;;
18659;SDS011;9459;50.254;19.014;2022-10-16T01:49:32;17.50;;;12.85;;
18659;SDS011;9459;50.254;19.014;2022-10-16T01:52:02;17.08;;;12.95;;
18659;SDS011;9459;50.254;19.014;2022-10-16T01:54:34;18.83;;;13.30;;
18659;SDS011;9459;50.254;19.014;2022-10-16T01:57:03;16.08;;;12.38;;
18659;SDS011;9459;50.254;19.014;2022-10-16T01:59:35;17.45;;;12.77;;
18659;SDS011;9459;50.254;19.014;2022-10-16T02:02:07;18.00;;;11.82;;
18659;SDS011;9459;50.254;19.014;2022-10-16T02:04:38;14.05;;;11.45;;
18659;SDS011;9459;50.254;19.014;2022-10-16T02:07:08;15.47;;;11.23;;
18659;SDS011;9459;50.254;19.014;2022-10-16T02:09:36;16.95;;;10.52;;
18659;SDS011;9459;50.254;19.014;2022-10-16T02:12:06;17.25;;;11.00;;
18659;SDS011;9459;50.254;19.014;2022-10-16T02:14:39;14.10;;;10.30;;
18659;SDS011;9459;50.254;19.014;2022-10-16T02:17:12;12.05;;;9.90;;
18659;SDS011;9459;50.254;19.014;2022-10-16T02:19:42;16.88;;;10.77;;
18659;SDS011;9459;50.254;19.014;2022-10-16T02:22:13;13.70;;;10.82;;
18659;SDS011;9459;50.254;19.014;2022-10-16T02:24:46;16.83;;;9.73;;
18659;SDS011;9459;50.254;19.014;2022-10-16T02:27:19;16.67;;;10.73;;
18659;SDS011;9459;50.254;19.014;2022-10-16T02:29:54;14.60;;;10.73;;
18659;SDS011;9459;50.254;19.014;2022-10-16T02:32:27;15.05;;;10.80;;
18659;SDS011;9459;50.254;19.014;2022-10-16T02:34:58;13.82;;;9.75;;
18659;SDS011;9459;50.254;19.014;2022-10-16T02:37:27;13.73;;;11.25;;
18659;SDS011;9459;50.254;19.014;2022-10-16T02:39:56;20.48;;;11.95;;
18659;SDS011;9459;50.254;19.014;2022-10-16T02:42:29;16.48;;;11.48;;
18659;SDS011;9459;50.254;19.014;2022-10-16T02:45:02;13.65;;;10.93;;
18659;SDS011;9459;50.254;19.014;2022-10-16T02:47:31;16.60;;;11.43;;
18659;SDS011;9459;50.254;19.014;2022-10-16T02:49:59;16.05;;;11.25;;
18659;SDS011;9459;50.254;19.014;2022-10-16T02:52:28;15.85;;;11.30;;
18659;SDS011;9459;50.254;19.014;2022-10-16T02:54:56;15.07;;;10.27;;
18659;SDS011;9459;50.254;19.014;2022-10-16T02:57:24;13.23;;;10.27;;
18659;SDS011;9459;50.254;19.014;2022-10-16T02:59:53;14.45;;;10.15;;
18659;SDS011;9459;50.254;19.014;2022-10-16T03:02:23;17.17;;;10.38;;
18659;SDS011;9459;50.254;19.014;2022-10-16T03:04:51;13.82;;;10.68;;
18659;SDS011;9459;50.254;19.014;2022-10-16T03:07:19;17.40;;;11.57;;
18659;SDS011;9459;50.254;19.014;2022-10-16T03:09:47;16.58;;;10.45;;
18659;SDS011;9459;50.254;19.014;2022-10-16T03:12:16;15.27;;;9.93;;
18659;SDS011;9459;50.254;19.014;2022-10-16T03:14:44;15.63;;;10.00;;
18659;SDS011;9459;50.254;19.014;2022-10-16T03:17:13;14.82;;;9.75;;
18659;SDS011;9459;50.254;19.014;2022-10-16T03:19:44;13.07;;;9.93;;
18659;SDS011;9459;50.254;19.014;2022-10-16T03:22:13;13.30;;;10.90;;
18659;SDS011;9459;50.254;19.014;2022-10-16T03:24:41;13.68;;;10.75;;
18659;SDS011;9459;50.254;19.014;2022-10-16T03:27:09;14.27;;;11.60;;
18659;SDS011;9459;50.254;19.014;2022-10-16T03:29:37;15.80;;;11.73;;
18659;SDS011;9459;50.254;19.014;2022-10-16T03:32:06;16.10;;;11.82;;
18659;SDS011;9459;50.254;19.014;2022-10-16T03:34:34;16.85;;;11.98;;
18659;SDS011;9459;50.254;19.014;2022-10-16T03:37:04;16.42;;;12.48;;
18659;SDS011;9459;50.254;19.014;2022-10-16T03:39:32;15.40;;;11.60;;
18659;SDS011;9459;50.254;19.014;2022-10-16T03:42:00;15.65;;;11.15;;
18659;SDS011;9459;50.254;19.014;2022-10-16T03:44:29;14.90;;;11.15;;
18659;SDS011;9459;50.254;19.014;2022-10-16T03:46:58;12.80;;;10.65;;
18659;SDS011;9459;50.254;19.014;2022-10-16T03:49:26;14.27;;;10.77;;
18659;SDS011;9459;50.254;19.014;2022-10-16T03:51:54;14.73;;;10.70;;
18659;SDS011;9459;50.254;19.014;2022-10-16T03:54:24;12.52;;;10.45;;
18659;SDS011;9459;50.254;19.014;2022-10-16T03:56:52;12.35;;;10.50;;
18659;SDS011;9459;50.254;19.014;2022-10-16T03:59:20;15.05;;;10.45;;
18659;SDS011;9459;50.254;19.014;2022-10-16T04:01:49;11.75;;;9.57;;
18659;SDS011;9459;50.254;19.014;2022-10-16T04:04:17;13.10;;;10.52;;
18659;SDS011;9459;50.254;19.014;2022-10-16T04:06:45;13.85;;;10.98;;
18659;SDS011;9459;50.254;19.014;2022-10-16T04:09:13;15.90;;;11.45;;
18659;SDS011;9459;50.254;19.014;2022-10-16T04:11:43;14.57;;;11.13;;
18659;SDS011;9459;50.254;19.014;2022-10-16T04:14:12;12.73;;;10.20;;
18659;SDS011;9459;50.254;19.014;2022-10-16T04:16:40;14.57;;;10.77;;
18659;SDS011;9459;50.254;19.014;2022-10-16T04:19:08;12.68;;;9.98;;
18659;SDS011;9459;50.254;19.014;2022-10-16T04:21:37;13.57;;;10.32;;
18659;SDS011;9459;50.254;19.014;2022-10-16T04:24:05;12.32;;;9.45;;
18659;SDS011;9459;50.254;19.014;2022-10-16T04:26:33;14.02;;;9.98;;
18659;SDS011;9459;50.254;19.014;2022-10-16T04:29:03;13.75;;;10.13;;
18659;SDS011;9459;50.254;19.014;2022-10-16T04:31:32;13.02;;;9.57;;
18659;SDS011;9459;50.254;19.014;2022-10-16T04:34:01;13.52;;;10.48;;
18659;SDS011;9459;50.254;19.014;2022-10-16T04:36:29;14.15;;;10.90;;
18659;SDS011;9459;50.254;19.014;2022-10-16T04:38:57;12.98;;;10.05;;
18659;SDS011;9459;50.254;19.014;2022-10-16T04:41:25;13.07;;;10.40;;
18659;SDS011;9459;50.254;19.014;2022-10-16T04:43:54;16.08;;;11.18;;
18659;SDS011;9459;50.254;19.014;2022-10-16T04:46:23;13.95;;;10.95;;
18659;SDS011;9459;50.254;19.014;2022-10-16T04:48:52;13.90;;;10.23;;
18659;SDS011;9459;50.254;19.014;2022-10-16T04:51:20;15.05;;;11.88;;
18659;SDS011;9459;50.254;19.014;2022-10-16T04:53:48;18.42;;;12.32;;
18659;SDS011;9459;50.254;19.014;2022-10-16T04:56:16;15.10;;;10.48;;
18659;SDS011;9459;50.254;19.014;2022-10-16T04:58:45;15.18;;;10.88;;
18659;SDS011;9459;50.254;19.014;2022-10-16T05:01:13;14.40;;;10.73;;
18659;SDS011;9459;50.254;19.014;2022-10-16T05:03:43;15.40;;;10.27;;
18659;SDS011;9459;50.254;19.014;2022-10-16T05:06:11;17.40;;;11.48;;
18659;SDS011;9459;50.254;19.014;2022-10-16T05:08:39;12.05;;;10.27;;
18659;SDS011;9459;50.254;19.014;2022-10-16T05:11:07;15.52;;;11.43;;
18659;SDS011;9459;50.254;19.014;2022-10-16T05:13:36;14.43;;;10.60;;
18659;SDS011;9459;50.254;19.014;2022-10-16T05:16:04;13.75;;;10.27;;
18659;SDS011;9459;50.254;19.014;2022-10-16T05:18:33;17.70;;;11.68;;
18659;SDS011;9459;50.254;19.014;2022-10-16T05:21:03;14.90;;;11.27;;
18659;SDS011;9459;50.254;19.014;2022-10-16T05:23:32;13.27;;;11.25;;
18659;SDS011;9459;50.254;19.014;2022-10-16T05:26:00;16.52;;;12.52;;
18659;SDS011;9459;50.254;19.014;2022-10-16T05:28:29;13.15;;;10.90;;
18659;SDS011;9459;50.254;19.014;2022-10-16T05:30:58;13.07;;;10.20;;
18659;SDS011;9459;50.254;19.014;2022-10-16T05:33:26;14.40;;;10.82;;
18659;SDS011;9459;50.254;19.014;2022-10-16T05:35:54;15.02;;;11.52;;
18659;SDS011;9459;50.254;19.014;2022-10-16T05:38:23;16.75;;;10.38;;
18659;SDS011;9459;50.254;19.014;2022-10-16T05:40:52;17.02;;;10.10;;
18659;SDS011;9459;50.254;19.014;2022-10-16T05:43:20;16.20;;;9.85;;
18659;SDS011;9459;50.254;19.014;2022-10-16T05:45:55;13.55;;;10.10;;
18659;SDS011;9459;50.254;19.014;2022-10-16T05:48:24;14.27;;;11.95;;
18659;SDS011;9459;50.254;19.014;2022-10-16T05:50:56;14.38;;;11.07;;
18659;SDS011;9459;50.254;19.014;2022-10-16T05:53:26;13.95;;;11.68;;
18659;SDS011;9459;50.254;19.014;2022-10-16T05:55:55;14.70;;;11.07;;
18659;SDS011;9459;50.254;19.014;2022-10-16T05:58:23;13.43;;;10.55;;
18659;SDS011;9459;50.254;19.014;2022-10-16T06:00:53;13.63;;;10.50;;
18659;SDS011;9459;50.254;19.014;2022-10-16T06:03:22;12.25;;;9.60;;
18659;SDS011;9459;50.254;19.014;2022-10-16T06:05:50;14.30;;;10.23;;
18659;SDS011;9459;50.254;19.014;2022-10-16T06:08:19;13.98;;;10.13;;
18659;SDS011;9459;50.254;19.014;2022-10-16T06:11:00;12.20;;;10.55;;
18659;SDS011;9459;50.254;19.014;2022-10-16T06:13:29;14.13;;;10.73;;
18659;SDS011;9459;50.254;19.014;2022-10-16T06:15:58;12.35;;;9.40;;
18659;SDS011;9459;50.254;19.014;2022-10-16T06:18:28;14.60;;;10.52;;
18659;SDS011;9459;50.254;19.014;2022-10-16T06:20:57;12.30;;;9.50;;
18659;SDS011;9459;50.254;19.014;2022-10-16T06:23:25;15.60;;;11.35;;
18659;SDS011;9459;50.254;19.014;2022-10-16T06:26:04;11.35;;;9.50;;
18659;SDS011;9459;50.254;19.014;2022-10-16T06:28:33;13.07;;;10.68;;
18659;SDS011;9459;50.254;19.014;2022-10-16T06:31:03;16.33;;;10.60;;
18659;SDS011;9459;50.254;19.014;2022-10-16T06:33:34;15.30;;;10.75;;
18659;SDS011;9459;50.254;19.014;2022-10-16T06:36:02;13.73;;;10.55;;
18659;SDS011;9459;50.254;19.014;2022-10-16T06:38:31;11.95;;;10.30;;
18659;SDS011;9459;50.254;19.014;2022-10-16T06:41:00;14.50;;;10.98;;
18659;SDS011;9459;50.254;19.014;2022-10-16T06:43:29;14.77;;;9.50;;
18659;SDS011;9459;50.254;19.014;2022-10-16T06:45:59;12.75;;;8.40;;
18659;SDS011;9459;50.254;19.014;2022-10-16T06:48:28;13.93;;;9.00;;
18659;SDS011;9459;50.254;19.014;2022-10-16T06:50:57;10.57;;;7.70;;
18659;SDS011;9459;50.254;19.014;2022-10-16T06:53:26;7.80;;;6.80;;
18659;SDS011;9459;50.254;19.014;2022-10-16T06:56:06;10.23;;;8.30;;
18659;SDS011;9459;50.254;19.014;2022-10-16T06:58:36;10.90;;;6.82;;
18659;SDS011;9459;50.254;19.014;2022-10-16T07:01:05;7.80;;;6.30;;
18659;SDS011;9459;50.254;19.014;2022-10-16T07:03:35;10.70;;;7.20;;
18659;SDS011;9459;50.254;19.014;2022-10-16T07:06:05;7.95;;;6.50;;
18659;SDS011;9459;50.254;19.014;2022-10-16T07:08:35;10.13;;;6.63;;
18659;SDS011;9459;50.254;19.014;2022-10-16T07:11:05;9.07;;;7.38;;
18659;SDS011;9459;50.254;19.014;2022-10-16T07:13:34;9.27;;;7.60;;
18659;SDS011;9459;50.254;19.014;2022-10-16T07:16:07;9.65;;;7.85;;
18659;SDS011;9459;50.254;19.014;2022-10-16T07:18:37;10.57;;;7.53;;
18659;SDS011;9459;50.254;19.014;2022-10-16T07:21:07;7.60;;;6.90;;
18659;SDS011;9459;50.254;19.014;2022-10-16T07:23:36;8.02;;;6.65;;
18659;SDS011;9459;50.254;19.014;2022-10-16T07:26:05;8.38;;;6.60;;
18659;SDS011;9459;50.254;19.014;2022-10-16T07:28:34;10.35;;;7.15;;
18659;SDS011;9459;50.254;19.014;2022-10-16T07:31:02;8.82;;;6.90;;
18659;SDS011;9459;50.254;19.014;2022-10-16T07:33:33;8.07;;;6.72;;
18659;SDS011;9459;50.254;19.014;2022-10-16T07:36:02;12.20;;;6.80;;
18659;SDS011;9459;50.254;19.014;2022-10-16T07:38:31;9.98;;;6.88;;
18659;SDS011;9459;50.254;19.014;2022-10-16T07:41:00;8.82;;;6.45;;
18659;SDS011;9459;50.254;19.014;2022-10-16T07:43:29;11.45;;;7.03;;
18659;SDS011;9459;50.254;19.014;2022-10-16T07:45:57;8.13;;;7.20;;
18659;SDS011;9459;50.254;19.014;2022-10-16T07:48:33;10.55;;;6.68;;
18659;SDS011;9459;50.254;19.014;2022-10-16T07:51:03;19.25;;;13.38;;
18659;SDS011;9459;50.254;19.014;2022-10-16T07:53:32;12.43;;;8.97;;
18659;SDS011;9459;50.254;19.014;2022-10-16T07:56:01;10.95;;;8.63;;
18659;SDS011;9459;50.254;19.014;2022-10-16T07:58:30;48.22;;;36.15;;
18659;SDS011;9459;50.254;19.014;2022-10-16T08:00:59;19.50;;;14.70;;
18659;SDS011;9459;50.254;19.014;2022-10-16T08:03:30;20.85;;;15.13;;
18659;SDS011;9459;50.254;19.014;2022-10-16T08:06:00;9.00;;;6.97;;
18659;SDS011;9459;50.254;19.014;2022-10-16T08:08:29;7.47;;;6.15;;
18659;SDS011;9459;50.254;19.014;2022-10-16T08:10:57;9.13;;;6.18;;
18659;SDS011;9459;50.254;19.014;2022-10-16T08:13:26;8.43;;;6.25;;
18659;SDS011;9459;50.254;19.014;2022-10-16T08:15:54;8.07;;;6.30;;
18659;SDS011;9459;50.254;19.014;2022-10-16T08:18:23;11.63;;;6.70;;
18659;SDS011;9459;50.254;19.014;2022-10-16T08:20:55;16.98;;;12.88;;
18659;SDS011;9459;50.254;19.014;2022-10-16T08:23:24;8.93;;;6.50;;
18659;SDS011;9459;50.254;19.014;2022-10-16T08:25:53;10.25;;;7.93;;
18659;SDS011;9459;50.254;19.014;2022-10-16T08:28:22;10.60;;;7.80;;
18659;SDS011;9459;50.254;19.014;2022-10-16T08:30:51;8.48;;;6.20;;
18659;SDS011;9459;50.254;19.014;2022-10-16T08:33:19;11.45;;;6.18;;
18659;SDS011;9459;50.254;19.014;2022-10-16T08:35:51;18.92;;;11.98;;
18659;SDS011;9459;50.254;19.014;2022-10-16T08:38:20;9.05;;;6.18;;
18659;SDS011;9459;50.254;19.014;2022-10-16T08:40:50;6.97;;;5.88;;
18659;SDS011;9459;50.254;19.014;2022-10-16T08:46:00;7.05;;;6.15;;
18659;SDS011;9459;50.254;19.014;2022-10-16T08:48:39;7.10;;;6.35;;
18659;SDS011;9459;50.254;19.014;2022-10-16T08:51:11;8.30;;;6.40;;
18659;SDS011;9459;50.254;19.014;2022-10-16T08:53:48;23.17;;;15.40;;
18659;SDS011;9459;50.254;19.014;2022-10-16T08:56:20;8.43;;;6.18;;
18659;SDS011;9459;50.254;19.014;2022-10-16T08:58:48;9.85;;;5.93;;
18659;SDS011;9459;50.254;19.014;2022-10-16T09:01:24;8.20;;;5.70;;
18659;SDS011;9459;50.254;19.014;2022-10-16T09:04:18;9.57;;;6.28;;
18659;SDS011;9459;50.254;19.014;2022-10-16T09:07:11;9.55;;;6.70;;
18659;SDS011;9459;50.254;19.014;2022-10-16T09:09:46;8.00;;;5.88;;
18659;SDS011;9459;50.254;19.014;2022-10-16T09:12:23;10.20;;;7.82;;
18659;SDS011;9459;50.254;19.014;2022-10-16T09:14:58;9.25;;;6.03;;
18659;SDS011;9459;50.254;19.014;2022-10-16T09:17:34;7.93;;;6.25;;
18659;SDS011;9459;50.254;19.014;2022-10-16T09:20:19;9.60;;;6.68;;
18659;SDS011;9459;50.254;19.014;2022-10-16T09:22:53;5.32;;;4.75;;
18659;SDS011;9459;50.254;19.014;2022-10-16T09:25:23;9.27;;;7.22;;
18659;SDS011;9459;50.254;19.014;2022-10-16T09:27:53;13.02;;;9.02;;
18659;SDS011;9459;50.254;19.014;2022-10-16T09:30:22;9.20;;;6.70;;
18659;SDS011;9459;50.254;19.014;2022-10-16T09:32:51;12.60;;;7.80;;
18659;SDS011;9459;50.254;19.014;2022-10-16T09:35:20;7.78;;;6.10;;
18659;SDS011;9459;50.254;19.014;2022-10-16T09:37:51;12.20;;;6.93;;
18659;SDS011;9459;50.254;19.014;2022-10-16T09:40:25;7.57;;;6.15;;
18659;SDS011;9459;50.254;19.014;2022-10-16T09:42:57;7.15;;;6.05;;
18659;SDS011;9459;50.254;19.014;2022-10-16T09:45:29;6.00;;;5.40;;
18659;SDS011;9459;50.254;19.014;2022-10-16T09:47:57;8.45;;;6.45;;
18659;SDS011;9459;50.254;19.014;2022-10-16T09:50:27;10.25;;;6.80;;
18659;SDS011;9459;50.254;19.014;2022-10-16T09:53:04;7.28;;;6.28;;
18659;SDS011;9459;50.254;19.014;2022-10-16T09:55:33;10.40;;;7.85;;
18659;SDS011;9459;50.254;19.014;2022-10-16T09:58:03;6.63;;;5.93;;
18659;SDS011;9459;50.254;19.014;2022-10-16T10:00:41;6.10;;;5.50;;
18659;SDS011;9459;50.254;19.014;2022-10-16T10:03:10;6.93;;;5.55;;
18659;SDS011;9459;50.254;19.014;2022-10-16T10:05:38;7.78;;;5.50;;
18659;SDS011;9459;50.254;19.014;2022-10-16T10:08:12;6.75;;;5.35;;
18659;SDS011;9459;50.254;19.014;2022-10-16T10:10:43;7.25;;;5.80;;
18659;SDS011;9459;50.254;19.014;2022-10-16T10:13:18;6.72;;;5.28;;
18659;SDS011;9459;50.254;19.014;2022-10-16T10:15:47;6.68;;;5.05;;
18659;SDS011;9459;50.254;19.014;2022-10-16T10:18:16;8.75;;;6.90;;
18659;SDS011;9459;50.254;19.014;2022-10-16T10:20:46;6.43;;;5.53;;
18659;SDS011;9459;50.254;19.014;2022-10-16T10:23:26;7.15;;;5.03;;
18659;SDS011;9459;50.254;19.014;2022-10-16T10:25:55;12.30;;;7.30;;
18659;SDS011;9459;50.254;19.014;2022-10-16T10:28:41;8.65;;;5.47;;
18659;SDS011;9459;50.254;19.014;2022-10-16T10:31:17;7.68;;;5.90;;
18659;SDS011;9459;50.254;19.014;2022-10-16T10:33:51;5.95;;;5.35;;
18659;SDS011;9459;50.254;19.014;2022-10-16T10:36:24;7.55;;;5.55;;
18659;SDS011;9459;50.254;19.014;2022-10-16T10:38:57;5.70;;;5.07;;
18659;SDS011;9459;50.254;19.014;2022-10-16T10:41:29;6.97;;;5.07;;
18659;SDS011;9459;50.254;19.014;2022-10-16T10:44:11;6.80;;;5.68;;
18659;SDS011;9459;50.254;19.014;2022-10-16T10:46:45;6.55;;;5.05;;
18659;SDS011;9459;50.254;19.014;2022-10-16T10:49:20;6.57;;;4.85;;
18659;SDS011;9459;50.254;19.014;2022-10-16T10:51:59;7.53;;;5.25;;
18659;SDS011;9459;50.254;19.014;2022-10-16T10:54:32;7.70;;;5.15;;
18659;SDS011;9459;50.254;19.014;2022-10-16T10:57:08;6.18;;;5.05;;
18659;SDS011;9459;50.254;19.014;2022-10-16T10:59:47;6.18;;;5.18;;
18659;SDS011;9459;50.254;19.014;2022-10-16T11:02:23;7.13;;;5.30;;
18659;SDS011;9459;50.254;19.014;2022-10-16T11:05:02;8.35;;;5.50;;
18659;SDS011;9459;50.254;19.014;2022-10-16T11:07:44;6.25;;;5.05;;
18659;SDS011;9459;50.254;19.014;2022-10-16T11:10:17;7.80;;;4.80;;
18659;SDS011;9459;50.254;19.014;2022-10-16T11:12:52;6.18;;;5.13;;
18659;SDS011;9459;50.254;19.014;2022-10-16T11:15:25;11.25;;;6.10;;
18659;SDS011;9459;50.254;19.014;2022-10-16T11:17:57;5.57;;;5.05;;
18659;SDS011;9459;50.254;19.014;2022-10-16T11:20:29;5.70;;;4.28;;
18659;SDS011;9459;50.254;19.014;2022-10-16T11:23:00;7.68;;;5.95;;
18659;SDS011;9459;50.254;19.014;2022-10-16T11:25:31;8.52;;;5.95;;
18659;SDS011;9459;50.254;19.014;2022-10-16T11:28:01;6.63;;;5.90;;
18659;SDS011;9459;50.254;19.014;2022-10-16T11:33:10;7.75;;;5.95;;
18659;SDS011;9459;50.254;19.014;2022-10-16T11:35:48;7.78;;;5.22;;
18659;SDS011;9459;50.254;19.014;2022-10-16T11:38:21;8.43;;;5.50;;
18659;SDS011;9459;50.254;19.014;2022-10-16T11:40:54;6.72;;;5.70;;
18659;SDS011;9459;50.254;19.014;2022-10-16T11:43:26;6.72;;;5.00;;
18659;SDS011;9459;50.254;19.014;2022-10-16T11:45:58;5.80;;;5.20;;
18659;SDS011;9459;50.254;19.014;2022-10-16T11:48:36;6.50;;;5.18;;
18659;SDS011;9459;50.254;19.014;2022-10-16T11:51:08;6.03;;;5.32;;
18659;SDS011;9459;50.254;19.014;2022-10-16T11:53:44;7.40;;;5.70;;
18659;SDS011;9459;50.254;19.014;2022-10-16T11:56:15;7.32;;;5.68;;
18659;SDS011;9459;50.254;19.014;2022-10-16T11:58:48;8.65;;;5.68;;
18659;SDS011;9459;50.254;19.014;2022-10-16T12:01:24;6.63;;;5.53;;
18659;SDS011;9459;50.254;19.014;2022-10-16T12:04:00;8.20;;;5.85;;
18659;SDS011;9459;50.254;19.014;2022-10-16T12:06:40;6.97;;;5.85;;
18659;SDS011;9459;50.254;19.014;2022-10-16T12:09:13;6.38;;;4.93;;
18659;SDS011;9459;50.254;19.014;2022-10-16T12:11:45;8.70;;;6.20;;
18659;SDS011;9459;50.254;19.014;2022-10-16T12:14:21;8.80;;;5.50;;
18659;SDS011;9459;50.254;19.014;2022-10-16T12:17:26;7.35;;;5.55;;
18659;SDS011;9459;50.254;19.014;2022-10-16T12:19:59;7.47;;;5.43;;
18659;SDS011;9459;50.254;19.014;2022-10-16T12:22:29;7.32;;;5.80;;
18659;SDS011;9459;50.254;19.014;2022-10-16T12:24:58;10.50;;;6.70;;
18659;SDS011;9459;50.254;19.014;2022-10-16T12:27:27;9.10;;;6.75;;
18659;SDS011;9459;50.254;19.014;2022-10-16T12:29:57;7.70;;;6.30;;
18659;SDS011;9459;50.254;19.014;2022-10-16T12:32:30;8.13;;;6.07;;
18659;SDS011;9459;50.254;19.014;2022-10-16T12:35:17;6.03;;;5.40;;
18659;SDS011;9459;50.254;19.014;2022-10-16T12:37:48;7.30;;;5.07;;
18659;SDS011;9459;50.254;19.014;2022-10-16T12:40:23;8.48;;;6.43;;
18659;SDS011;9459;50.254;19.014;2022-10-16T12:42:54;7.43;;;5.88;;
18659;SDS011;9459;50.254;19.014;2022-10-16T12:45:27;7.20;;;5.35;;
18659;SDS011;9459;50.254;19.014;2022-10-16T12:47:59;6.90;;;5.95;;
18659;SDS011;9459;50.254;19.014;2022-10-16T12:50:33;9.60;;;6.68;;
18659;SDS011;9459;50.254;19.014;2022-10-16T12:53:03;7.35;;;6.28;;
18659;SDS011;9459;50.254;19.014;2022-10-16T12:55:35;7.22;;;6.35;;
18659;SDS011;9459;50.254;19.014;2022-10-16T12:58:21;10.70;;;7.05;;
18659;SDS011;9459;50.254;19.014;2022-10-16T13:01:07;9.32;;;6.80;;
18659;SDS011;9459;50.254;19.014;2022-10-16T13:04:01;8.75;;;6.80;;
18659;SDS011;9459;50.254;19.014;2022-10-16T13:09:28;10.68;;;7.80;;
18659;SDS011;9459;50.254;19.014;2022-10-16T13:12:11;9.90;;;7.03;;
18659;SDS011;9459;50.254;19.014;2022-10-16T13:17:27;11.70;;;8.00;;
18659;SDS011;9459;50.254;19.014;2022-10-16T13:20:02;11.90;;;8.52;;
18659;SDS011;9459;50.254;19.014;2022-10-16T13:22:39;12.60;;;9.20;;
18659;SDS011;9459;50.254;19.014;2022-10-16T13:25:15;11.40;;;8.48;;
18659;SDS011;9459;50.254;19.014;2022-10-16T13:27:52;10.43;;;7.63;;
18659;SDS011;9459;50.254;19.014;2022-10-16T13:30:23;11.25;;;8.35;;
18659;SDS011;9459;50.254;19.014;2022-10-16T13:32:58;13.20;;;8.13;;
18659;SDS011;9459;50.254;19.014;2022-10-16T13:35:30;10.98;;;7.93;;
18659;SDS011;9459;50.254;19.014;2022-10-16T13:38:04;13.05;;;7.55;;
18659;SDS011;9459;50.254;19.014;2022-10-16T13:40:33;12.98;;;8.32;;
18659;SDS011;9459;50.254;19.014;2022-10-16T13:43:01;11.00;;;8.00;;
18659;SDS011;9459;50.254;19.014;2022-10-16T13:45:30;10.60;;;7.43;;
18659;SDS011;9459;50.254;19.014;2022-10-16T13:48:01;10.45;;;7.40;;
18659;SDS011;9459;50.254;19.014;2022-10-16T13:50:32;9.50;;;7.55;;
18659;SDS011;9459;50.254;19.014;2022-10-16T13:53:04;10.05;;;8.10;;
18659;SDS011;9459;50.254;19.014;2022-10-16T13:55:33;11.63;;;7.78;;
18659;SDS011;9459;50.254;19.014;2022-10-16T13:58:05;9.25;;;7.95;;
18659;SDS011;9459;50.254;19.014;2022-10-16T14:00:34;10.82;;;7.60;;
18659;SDS011;9459;50.254;19.014;2022-10-16T14:03:04;11.02;;;7.80;;
18659;SDS011;9459;50.254;19.014;2022-10-16T14:05:47;10.07;;;7.47;;
18659;SDS011;9459;50.254;19.014;2022-10-16T14:08:16;9.98;;;7.38;;
18659;SDS011;9459;50.254;19.014;2022-10-16T14:10:47;9.40;;;7.53;;
18659;SDS011;9459;50.254;19.014;2022-10-16T14:13:17;12.65;;;7.70;;
18659;SDS011;9459;50.254;19.014;2022-10-16T14:15:48;14.13;;;8.02;;
18659;SDS011;9459;50.254;19.014;2022-10-16T14:18:18;9.90;;;7.70;;
18659;SDS011;9459;50.254;19.014;2022-10-16T14:23:19;10.98;;;8.48;;
18659;SDS011;9459;50.254;19.014;2022-10-16T14:25:49;10.35;;;8.15;;
18659;SDS011;9459;50.254;19.014;2022-10-16T14:28:17;10.32;;;7.53;;
18659;SDS011;9459;50.254;19.014;2022-10-16T14:30:50;10.40;;;8.18;;
18659;SDS011;9459;50.254;19.014;2022-10-16T14:33:21;9.43;;;7.85;;
18659;SDS011;9459;50.254;19.014;2022-10-16T14:36:00;9.90;;;7.82;;
18659;SDS011;9459;50.254;19.014;2022-10-16T14:38:30;10.57;;;8.27;;
18659;SDS011;9459;50.254;19.014;2022-10-16T14:40:59;11.70;;;7.82;;
18659;SDS011;9459;50.254;19.014;2022-10-16T14:43:31;10.77;;;8.02;;
18659;SDS011;9459;50.254;19.014;2022-10-16T14:46:01;13.75;;;8.15;;
18659;SDS011;9459;50.254;19.014;2022-10-16T14:48:30;11.25;;;7.72;;
18659;SDS011;9459;50.254;19.014;2022-10-16T14:51:00;10.73;;;8.13;;
18659;SDS011;9459;50.254;19.014;2022-10-16T14:53:29;10.40;;;8.00;;
18659;SDS011;9459;50.254;19.014;2022-10-16T14:55:57;10.02;;;7.47;;
18659;SDS011;9459;50.254;19.014;2022-10-16T14:58:27;8.55;;;7.07;;
18659;SDS011;9459;50.254;19.014;2022-10-16T15:00:55;11.30;;;6.85;;
18659;SDS011;9459;50.254;19.014;2022-10-16T15:03:24;7.80;;;6.82;;
18659;SDS011;9459;50.254;19.014;2022-10-16T15:05:52;9.15;;;6.68;;
18659;SDS011;9459;50.254;19.014;2022-10-16T15:08:22;9.52;;;7.63;;
18659;SDS011;9459;50.254;19.014;2022-10-16T15:10:51;7.78;;;6.72;;
18659;SDS011;9459;50.254;19.014;2022-10-16T15:13:19;9.73;;;7.07;;